sensor_id;sensor_type;location;lat;lon;timestamp;pressure;altitude;pressure_sealevel;temperature;humidity
13968;BME280;39536;52.198;9.920;2023-02-03T00:02:00;101159.44;;;6.51;100.00
13968;BME280;39536;52.198;9.920;2023-02-03T00:04:28;101167.13;;;6.57;100.00
13968;BME280;39536;52.198;9.920;2023-02-03T00:06:55;101181.81;;;6.57;100.00
13968;BME280;39536;52.198;9.920;2023-02-03T00:09:22;101180.06;;;6.60;100.00
13968;BME280;39536;52.198;9.920;2023-02-03T00:11:48;101183.53;;;6.59;100.00
13968;BME280;39536;52.198;9.920;2023-02-03T00:14:15;101184.31;;;6.69;100.00
13968;BME280;39536;52.198;9.920;2023-02-03T00:16:42;101170.50;;;6.71;100.00
13968;BME280;39536;52.198;9.920;2023-02-03T00:19:08;101168.78;;;6.74;100.00
13968;BME280;39536;52.198;9.920;2023-02-03T00:21:37;101175.66;;;6.78;100.00
13968;BME280;39536;52.198;9.920;2023-02-03T00:24:04;101161.84;;;6.76;100.00
13968;BME280;39536;52.198;9.920;2023-02-03T00:26:31;101159.25;;;6.77;100.00
13968;BME280;39536;52.198;9.920;2023-02-03T00:28:58;101158.41;;;6.77;100.00
13968;BME280;39536;52.198;9.920;2023-02-03T00:31:25;101154.97;;;6.76;100.00
13968;BME280;39536;52.198;9.920;2023-02-03T00:33:56;101155.78;;;6.80;100.00
13968;BME280;39536;52.198;9.920;2023-02-03T00:36:23;101151.44;;;6.82;100.00
13968;BME280;39536;52.198;9.920;2023-02-03T00:38:51;101154.03;;;6.83;100.00
13968;BME280;39536;52.198;9.920;2023-02-03T00:41:19;101149.72;;;6.85;100.00
13968;BME280;39536;52.198;9.920;2023-02-03T00:43:46;101145.41;;;6.86;100.00
13968;BME280;39536;52.198;9.920;2023-02-03T00:46:13;101146.22;;;6.89;100.00
13968;BME280;39536;52.198;9.920;2023-02-03T00:48:40;101147.94;;;6.90;100.00
13968;BME280;39536;52.198;9.920;2023-02-03T00:51:06;101164.31;;;6.94;100.00
13968;BME280;39536;52.198;9.920;2023-02-03T00:53:33;101148.78;;;6.96;100.00
13968;BME280;39536;52.198;9.920;2023-02-03T00:56:01;101157.31;;;7.05;100.00
13968;BME280;39536;52.198;9.920;2023-02-03T00:58:27;101153.00;;;7.07;100.00
13968;BME280;39536;52.198;9.920;2023-02-03T01:00:55;101155.56;;;7.09;100.00
13968;BME280;39536;52.198;9.920;2023-02-03T01:03:22;101146.91;;;7.11;100.00
13968;BME280;39536;52.198;9.920;2023-02-03T01:05:49;101095.03;;;7.16;100.00
13968;BME280;39536;52.198;9.920;2023-02-03T01:08:15;101142.47;;;7.23;100.00
13968;BME280;39536;52.198;9.920;2023-02-03T01:10:42;101153.66;;;7.28;100.00
13968;BME280;39536;52.198;9.920;2023-02-03T01:13:10;101158.84;;;7.29;100.00
13968;BME280;39536;52.198;9.920;2023-02-03T01:15:36;101141.56;;;7.28;100.00
13968;BME280;39536;52.198;9.920;2023-02-03T01:18:03;101148.47;;;7.31;100.00
13968;BME280;39536;52.198;9.920;2023-02-03T01:20:29;101104.38;;;7.34;100.00
13968;BME280;39536;52.198;9.920;2023-02-03T01:22:56;101150.09;;;7.38;100.00
13968;BME280;39536;52.198;9.920;2023-02-03T01:25:23;101155.22;;;7.44;100.00
13968;BME280;39536;52.198;9.920;2023-02-03T01:27:49;101159.59;;;7.42;100.00
13968;BME280;39536;52.198;9.920;2023-02-03T01:30:18;101157.81;;;7.44;100.00
13968;BME280;39536;52.198;9.920;2023-02-03T01:32:44;101157.78;;;7.47;100.00
13968;BME280;39536;52.198;9.920;2023-02-03T01:35:11;101137.94;;;7.48;100.00
13968;BME280;39536;52.198;9.920;2023-02-03T01:37:37;101140.53;;;7.48;100.00
13968;BME280;39536;52.198;9.920;2023-02-03T01:40:05;101138.81;;;7.48;100.00
13968;BME280;39536;52.198;9.920;2023-02-03T01:42:33;101149.13;;;7.50;100.00
13968;BME280;39536;52.198;9.920;2023-02-03T01:44:59;101137.91;;;7.49;100.00
13968;BME280;39536;52.198;9.920;2023-02-03T01:47:29;101143.03;;;7.54;100.00
13968;BME280;39536;52.198;9.920;2023-02-03T01:50:03;101127.41;;;7.60;100.00
13968;BME280;39536;52.198;9.920;2023-02-03T01:52:32;101137.78;;;7.61;100.00
13968;BME280;39536;52.198;9.920;2023-02-03T01:55:02;101135.16;;;7.63;100.00
13968;BME280;39536;52.198;9.920;2023-02-03T01:57:33;101146.44;;;7.60;100.00
13968;BME280;39536;52.198;9.920;2023-02-03T02:00:02;101136.06;;;7.63;100.00
13968;BME280;39536;52.198;9.920;2023-02-03T02:02:31;101126.56;;;7.61;100.00
13968;BME280;39536;52.198;9.920;2023-02-03T02:05:02;101118.78;;;7.61;100.00
13968;BME280;39536;52.198;9.920;2023-02-03T02:07:30;101110.16;;;7.60;100.00
13968;BME280;39536;52.198;9.920;2023-02-03T02:09:58;101083.31;;;7.63;100.00
13968;BME280;39536;52.198;9.920;2023-02-03T02:12:26;101107.53;;;7.62;100.00
13968;BME280;39536;52.198;9.920;2023-02-03T02:14:52;101103.13;;;7.70;100.00
13968;BME280;39536;52.198;9.920;2023-02-03T02:17:32;101096.16;;;7.74;100.00
13968;BME280;39536;52.198;9.920;2023-02-03T02:20:24;101078.91;;;7.71;100.00
13968;BME280;39536;52.198;9.920;2023-02-03T02:23:16;101060.63;;;7.80;100.00
13968;BME280;39536;52.198;9.920;2023-02-03T02:25:55;101052.91;;;7.79;100.00
13968;BME280;39536;52.198;9.920;2023-02-03T02:31:59;101071.88;;;7.81;100.00
13968;BME280;39536;52.198;9.920;2023-02-03T02:34:38;101052.84;;;7.82;100.00
13968;BME280;39536;52.198;9.920;2023-02-03T02:37:19;101046.75;;;7.86;100.00
13968;BME280;39536;52.198;9.920;2023-02-03T02:39:52;101026.81;;;7.88;100.00
13968;BME280;39536;52.198;9.920;2023-02-03T02:42:25;101029.34;;;7.91;100.00
13968;BME280;39536;52.198;9.920;2023-02-03T02:44:58;101007.72;;;7.94;100.00
13968;BME280;39536;52.198;9.920;2023-02-03T02:47:31;101028.59;;;7.86;100.00
13968;BME280;39536;52.198;9.920;2023-02-03T02:50:01;101023.41;;;7.86;100.00
13968;BME280;39536;52.198;9.920;2023-02-03T02:52:33;101020.00;;;7.82;100.00
13968;BME280;39536;52.198;9.920;2023-02-03T02:55:06;101013.06;;;7.81;100.00
13968;BME280;39536;52.198;9.920;2023-02-03T02:57:35;101023.41;;;7.86;100.00
13968;BME280;39536;52.198;9.920;2023-02-03T03:00:04;101020.81;;;7.86;100.00
13968;BME280;39536;52.198;9.920;2023-02-03T03:02:33;101023.41;;;7.84;100.00
13968;BME280;39536;52.198;9.920;2023-02-03T03:05:00;101013.06;;;7.81;100.00
13968;BME280;39536;52.198;9.920;2023-02-03T03:07:30;101014.84;;;7.79;100.00
13968;BME280;39536;52.198;9.920;2023-02-03T03:10:04;100998.44;;;7.77;100.00
13968;BME280;39536;52.198;9.920;2023-02-03T03:12:34;100979.41;;;7.78;100.00
13968;BME280;39536;52.198;9.920;2023-02-03T03:15:06;101020.88;;;7.80;100.00
13968;BME280;39536;52.198;9.920;2023-02-03T03:17:40;100985.38;;;7.83;100.00
13968;BME280;39536;52.198;9.920;2023-02-03T03:20:10;100986.22;;;7.85;100.00
13968;BME280;39536;52.198;9.920;2023-02-03T03:22:43;100979.19;;;7.94;100.00
13968;BME280;39536;52.198;9.920;2023-02-03T03:25:14;101007.66;;;7.98;100.00
13968;BME280;39536;52.198;9.920;2023-02-03T03:27:45;101019.78;;;7.96;100.00
13968;BME280;39536;52.198;9.920;2023-02-03T03:30:15;100985.19;;;7.97;100.00
13968;BME280;39536;52.198;9.920;2023-02-03T03:32:45;100993.81;;;7.99;100.00
13968;BME280;39536;52.198;9.920;2023-02-03T03:35:12;100984.38;;;7.94;100.00
13968;BME280;39536;52.198;9.920;2023-02-03T03:37:41;100997.28;;;7.98;100.00
13968;BME280;39536;52.198;9.920;2023-02-03T03:40:12;100949.69;;;7.99;100.00
13968;BME280;39536;52.198;9.920;2023-02-03T03:42:43;101000.72;;;7.99;100.00
13968;BME280;39536;52.198;9.920;2023-02-03T03:45:15;100992.09;;;7.98;100.00
13968;BME280;39536;52.198;9.920;2023-02-03T03:47:50;100957.53;;;7.96;100.00
13968;BME280;39536;52.198;9.920;2023-02-03T03:50:21;100966.97;;;8.00;100.00
13968;BME280;39536;52.198;9.920;2023-02-03T03:52:50;100992.09;;;7.98;100.00
13968;BME280;39536;52.198;9.920;2023-02-03T03:55:18;100979.03;;;8.03;100.00
13968;BME280;39536;52.198;9.920;2023-02-03T03:57:53;100982.53;;;8.00;100.00
13968;BME280;39536;52.198;9.920;2023-02-03T04:00:23;100948.84;;;7.97;100.00
13968;BME280;39536;52.198;9.920;2023-02-03T04:02:54;100975.75;;;7.93;100.00
13968;BME280;39536;52.198;9.920;2023-02-03T04:05:23;100944.66;;;7.92;100.00
13968;BME280;39536;52.198;9.920;2023-02-03T04:07:50;100937.72;;;7.92;100.00
13968;BME280;39536;52.198;9.920;2023-02-03T04:10:24;100941.16;;;7.91;100.00
13968;BME280;39536;52.198;9.920;2023-02-03T04:12:52;100934.28;;;7.92;100.00
13968;BME280;39536;52.198;9.920;2023-02-03T04:15:19;100948.03;;;7.95;100.00
13968;BME280;39536;52.198;9.920;2023-02-03T04:17:45;100890.19;;;7.92;100.00
13968;BME280;39536;52.198;9.920;2023-02-03T04:20:13;100940.22;;;7.98;100.00
13968;BME280;39536;52.198;9.920;2023-02-03T04:22:40;100938.44;;;8.00;100.00
13968;BME280;39536;52.198;9.920;2023-02-03T04:25:07;100944.50;;;7.99;100.00
13968;BME280;39536;52.198;9.920;2023-02-03T04:27:34;100943.72;;;7.96;100.00
13968;BME280;39536;52.198;9.920;2023-02-03T04:30:01;100944.59;;;7.95;100.00
13968;BME280;39536;52.198;9.920;2023-02-03T04:32:27;100947.16;;;7.96;100.00
13968;BME280;39536;52.198;9.920;2023-02-03T04:34:55;100935.88;;;7.99;100.00
13968;BME280;39536;52.198;9.920;2023-02-03T04:37:23;100935.13;;;7.92;100.00
13968;BME280;39536;52.198;9.920;2023-02-03T04:39:51;100941.16;;;7.93;100.00
13968;BME280;39536;52.198;9.920;2023-02-03T04:42:17;100926.44;;;7.95;100.00
13968;BME280;39536;52.198;9.920;2023-02-03T04:44:44;100938.53;;;7.96;100.00
13968;BME280;39536;52.198;9.920;2023-02-03T04:47:10;100947.16;;;7.96;100.00
13968;BME280;39536;52.198;9.920;2023-02-03T04:49:37;100954.88;;;8.01;100.00
13968;BME280;39536;52.198;9.920;2023-02-03T04:52:04;100955.72;;;8.01;100.00
13968;BME280;39536;52.198;9.920;2023-02-03T04:54:32;100939.28;;;8.04;100.00
13968;BME280;39536;52.198;9.920;2023-02-03T04:56:59;100931.53;;;8.01;100.00
13968;BME280;39536;52.198;9.920;2023-02-03T04:59:26;100949.69;;;7.99;100.00
13968;BME280;39536;52.198;9.920;2023-02-03T05:01:52;100928.00;;;8.05;100.00
13968;BME280;39536;52.198;9.920;2023-02-03T05:04:19;100933.19;;;8.03;100.00
13968;BME280;39536;52.198;9.920;2023-02-03T05:06:46;100940.13;;;8.04;100.00
13968;BME280;39536;52.198;9.920;2023-02-03T05:09:12;100930.47;;;8.13;100.00
13968;BME280;39536;52.198;9.920;2023-02-03T05:11:40;100930.50;;;8.09;100.00
13968;BME280;39536;52.198;9.920;2023-02-03T05:14:07;100930.56;;;8.08;100.00
13968;BME280;39536;52.198;9.920;2023-02-03T05:16:33;100932.34;;;8.04;100.00
13968;BME280;39536;52.198;9.920;2023-02-03T05:19:00;100928.91;;;8.04;100.00
13968;BME280;39536;52.198;9.920;2023-02-03T05:21:26;100937.53;;;8.03;100.00
13968;BME280;39536;52.198;9.920;2023-02-03T05:23:53;100932.41;;;8.00;100.00
13968;BME280;39536;52.198;9.920;2023-02-03T05:26:20;100908.16;;;8.02;100.00
13968;BME280;39536;52.198;9.920;2023-02-03T05:28:48;100906.34;;;8.06;100.00
13968;BME280;39536;52.198;9.920;2023-02-03T05:31:14;100909.84;;;8.05;100.00
13968;BME280;39536;52.198;9.920;2023-02-03T05:33:41;100902.91;;;8.07;100.00
13968;BME280;39536;52.198;9.920;2023-02-03T05:36:08;100911.50;;;8.09;100.00
13968;BME280;39536;52.198;9.920;2023-02-03T05:41:11;100870.78;;;8.13;100.00
13968;BME280;39536;52.198;9.920;2023-02-03T05:43:55;100882.94;;;8.10;100.00
13968;BME280;39536;52.198;9.920;2023-02-03T05:46:23;100883.00;;;8.06;100.00
13968;BME280;39536;52.198;9.920;2023-02-03T05:48:49;100890.69;;;8.12;100.00
13968;BME280;39536;52.198;9.920;2023-02-03T05:51:16;100888.94;;;8.13;100.00
13968;BME280;39536;52.198;9.920;2023-02-03T05:53:42;100851.72;;;8.15;100.00
13968;BME280;39536;52.198;9.920;2023-02-03T05:56:10;100887.19;;;8.16;100.00
13968;BME280;39536;52.198;9.920;2023-02-03T05:58:37;100919.22;;;8.12;100.00
13968;BME280;39536;52.198;9.920;2023-02-03T06:01:04;100879.41;;;8.15;100.00
13968;BME280;39536;52.198;9.920;2023-02-03T06:03:30;100887.28;;;8.10;100.00
13968;BME280;39536;52.198;9.920;2023-02-03T06:05:57;100865.66;;;8.09;100.00
13968;BME280;39536;52.198;9.920;2023-02-03T06:08:23;100875.25;;;8.04;100.00
13968;BME280;39536;52.198;9.920;2023-02-03T06:10:56;100961.75;;;8.03;100.00
13968;BME280;39536;52.198;9.920;2023-02-03T06:13:24;100851.88;;;8.06;100.00
13968;BME280;39536;52.198;9.920;2023-02-03T06:15:51;100884.81;;;8.02;100.00
13968;BME280;39536;52.198;9.920;2023-02-03T06:18:17;100875.38;;;7.98;100.00
13968;BME280;39536;52.198;9.920;2023-02-03T06:20:44;100874.53;;;7.96;100.00
13968;BME280;39536;52.198;9.920;2023-02-03T06:23:10;100889.28;;;7.91;100.00
13968;BME280;39536;52.198;9.920;2023-02-03T06:25:37;100896.22;;;7.92;100.00
13968;BME280;39536;52.198;9.920;2023-02-03T06:28:04;100895.38;;;7.90;100.00
13968;BME280;39536;52.198;9.920;2023-02-03T06:30:32;100883.28;;;7.89;100.00
13968;BME280;39536;52.198;9.920;2023-02-03T06:32:58;100891.88;;;7.91;100.00
13968;BME280;39536;52.198;9.920;2023-02-03T06:35:25;100890.13;;;7.93;100.00
13968;BME280;39536;52.198;9.920;2023-02-03T06:37:52;100905.66;;;7.96;100.00
13968;BME280;39536;52.198;9.920;2023-02-03T06:40:18;100891.88;;;7.91;100.00
13968;BME280;39536;52.198;9.920;2023-02-03T06:42:45;100891.03;;;7.91;100.00
13968;BME280;39536;52.198;9.920;2023-02-03T06:45:12;100883.25;;;7.91;100.00
13968;BME280;39536;52.198;9.920;2023-02-03T06:47:40;100885.03;;;7.89;100.00
13968;BME280;39536;52.198;9.920;2023-02-03T06:50:09;100862.59;;;7.84;100.00
13968;BME280;39536;52.198;9.920;2023-02-03T06:52:36;100875.63;;;7.81;100.00
13968;BME280;39536;52.198;9.920;2023-02-03T06:55:03;100882.63;;;7.76;100.00
13968;BME280;39536;52.198;9.920;2023-02-03T06:57:30;100889.56;;;7.76;100.00
13968;BME280;39536;52.198;9.920;2023-02-03T06:59:56;100889.56;;;7.74;100.00
13968;BME280;39536;52.198;9.920;2023-02-03T07:02:23;100857.63;;;7.72;100.00
13968;BME280;39536;52.198;9.920;2023-02-03T07:04:51;100871.47;;;7.73;100.00
13968;BME280;39536;52.198;9.920;2023-02-03T07:07:17;100872.28;;;7.75;100.00
13968;BME280;39536;52.198;9.920;2023-02-03T07:09:44;100854.97;;;7.77;100.00
13968;BME280;39536;52.198;9.920;2023-02-03T07:12:10;100862.84;;;7.69;100.00
13968;BME280;39536;52.198;9.920;2023-02-03T07:14:37;100857.75;;;7.63;100.00
13968;BME280;39536;52.198;9.920;2023-02-03T07:17:04;100847.47;;;7.58;100.00
13968;BME280;39536;52.198;9.920;2023-02-03T07:19:31;100847.47;;;7.58;100.00
13968;BME280;39536;52.198;9.920;2023-02-03T07:21:59;100864.00;;;7.51;100.00
13968;BME280;39536;52.198;9.920;2023-02-03T07:24:25;100843.28;;;7.51;100.00
13968;BME280;39536;52.198;9.920;2023-02-03T07:26:52;100852.75;;;7.52;100.00
13968;BME280;39536;52.198;9.920;2023-02-03T07:29:18;100843.28;;;7.51;100.00
13968;BME280;39536;52.198;9.920;2023-02-03T07:31:45;100861.44;;;7.48;100.00
13968;BME280;39536;52.198;9.920;2023-02-03T07:34:12;100849.31;;;7.52;100.00
13968;BME280;39536;52.198;9.920;2023-02-03T07:36:38;100838.00;;;7.56;100.00
13968;BME280;39536;52.198;9.920;2023-02-03T07:39:06;100852.72;;;7.54;100.00
13968;BME280;39536;52.198;9.920;2023-02-03T07:41:33;100832.03;;;7.51;100.00
13968;BME280;39536;52.198;9.920;2023-02-03T07:43:59;100836.31;;;7.53;100.00
13968;BME280;39536;52.198;9.920;2023-02-03T07:46:26;100836.25;;;7.56;100.00
13968;BME280;39536;52.198;9.920;2023-02-03T07:48:53;100866.50;;;7.56;100.00
13968;BME280;39536;52.198;9.920;2023-02-03T07:51:19;100831.06;;;7.58;100.00
13968;BME280;39536;52.198;9.920;2023-02-03T07:53:45;100822.34;;;7.63;100.00
13968;BME280;39536;52.198;9.920;2023-02-03T07:56:13;100788.63;;;7.63;100.00
13968;BME280;39536;52.198;9.920;2023-02-03T07:58:40;100798.03;;;7.69;100.00
13968;BME280;39536;52.198;9.920;2023-02-03T08:01:11;100822.19;;;7.71;100.00
13968;BME280;39536;52.198;9.920;2023-02-03T08:03:38;100815.38;;;7.67;100.00
13968;BME280;39536;52.198;9.920;2023-02-03T08:06:05;100807.59;;;7.67;100.00
13968;BME280;39536;52.198;9.920;2023-02-03T08:08:31;100808.38;;;7.71;100.00
13968;BME280;39536;52.198;9.920;2023-02-03T08:10:58;100819.56;;;7.76;100.00
13968;BME280;39536;52.198;9.920;2023-02-03T08:13:26;100806.59;;;7.76;100.00
13968;BME280;39536;52.198;9.920;2023-02-03T08:15:52;100812.63;;;7.75;100.00
13968;BME280;39536;52.198;9.920;2023-02-03T08:18:19;100799.66;;;7.75;100.00
13968;BME280;39536;52.198;9.920;2023-02-03T08:20:45;100799.72;;;7.72;100.00
13968;BME280;39536;52.198;9.920;2023-02-03T08:23:12;100845.50;;;7.74;100.00
13968;BME280;39536;52.198;9.920;2023-02-03T08:25:38;100823.84;;;7.77;100.00
13968;BME280;39536;52.198;9.920;2023-02-03T08:28:05;100805.59;;;7.81;100.00
13968;BME280;39536;52.198;9.920;2023-02-03T08:30:33;100823.66;;;7.87;100.00
13968;BME280;39536;52.198;9.920;2023-02-03T08:32:59;100829.63;;;7.93;100.00
13968;BME280;39536;52.198;9.920;2023-02-03T08:35:26;100808.03;;;7.92;100.00
13968;BME280;39536;52.198;9.920;2023-02-03T08:37:53;100857.22;;;7.98;100.00
13968;BME280;39536;52.198;9.920;2023-02-03T08:40:19;100789.63;;;8.06;100.00
13968;BME280;39536;52.198;9.920;2023-02-03T08:42:46;100813.81;;;8.06;100.00
13968;BME280;39536;52.198;9.920;2023-02-03T08:45:12;100805.91;;;8.13;100.00
13968;BME280;39536;52.198;9.920;2023-02-03T08:47:40;100866.44;;;8.15;100.00
13968;BME280;39536;52.198;9.920;2023-02-03T08:50:08;100814.50;;;8.18;100.00
13968;BME280;39536;52.198;9.920;2023-02-03T08:52:35;100817.88;;;8.21;100.00
13968;BME280;39536;52.198;9.920;2023-02-03T08:55:01;100795.31;;;8.26;100.00
13968;BME280;39536;52.198;9.920;2023-02-03T08:57:31;100806.66;;;8.21;100.00
13968;BME280;39536;52.198;9.920;2023-02-03T08:59:58;100808.41;;;8.19;100.00
13968;BME280;39536;52.198;9.920;2023-02-03T09:02:24;100791.97;;;8.18;100.00
13968;BME280;39536;52.198;9.920;2023-02-03T09:04:52;100800.59;;;8.20;100.00
13968;BME280;39536;52.198;9.920;2023-02-03T09:07:18;100849.13;;;8.17;100.00
13968;BME280;39536;52.198;9.920;2023-02-03T09:09:45;100814.50;;;8.18;100.00
13968;BME280;39536;52.198;9.920;2023-02-03T09:12:11;100845.88;;;8.02;100.00
13968;BME280;39536;52.198;9.920;2023-02-03T09:14:38;100861.59;;;7.93;100.00
13968;BME280;39536;52.198;9.920;2023-02-03T09:17:05;100847.94;;;7.85;100.00
13968;BME280;39536;52.198;9.920;2023-02-03T09:19:35;100833.19;;;7.87;100.00
13968;BME280;39536;52.198;9.920;2023-02-03T09:22:03;100841.84;;;7.86;100.00
13968;BME280;39536;52.198;9.920;2023-02-03T09:24:30;100864.28;;;7.89;100.00
13968;BME280;39536;52.198;9.920;2023-02-03T09:26:57;100834.72;;;7.97;100.00
13968;BME280;39536;52.198;9.920;2023-02-03T09:29:25;100856.25;;;8.02;100.00
13968;BME280;39536;52.198;9.920;2023-02-03T09:31:52;100837.16;;;8.08;100.00
13968;BME280;39536;52.198;9.920;2023-02-03T09:34:18;100818.88;;;8.14;100.00
13968;BME280;39536;52.198;9.920;2023-02-03T09:36:45;100818.81;;;8.17;100.00
13968;BME280;39536;52.198;9.920;2023-02-03T09:39:22;100819.53;;;8.25;100.00
13968;BME280;39536;52.198;9.920;2023-02-03T09:42:16;100838.63;;;8.21;100.00
13968;BME280;39536;52.198;9.920;2023-02-03T09:44:49;100810.13;;;8.20;100.00
13968;BME280;39536;52.198;9.920;2023-02-03T09:47:21;100851.66;;;8.18;100.00
13968;BME280;39536;52.198;9.920;2023-02-03T09:49:56;100843.66;;;8.30;100.00
13968;BME280;39536;52.198;9.920;2023-02-03T09:52:31;100752.88;;;8.29;100.00
13968;BME280;39536;52.198;9.920;2023-02-03T09:55:03;100802.31;;;8.21;100.00
13968;BME280;39536;52.198;9.920;2023-02-03T09:57:34;100816.25;;;8.16;100.00
13968;BME280;39536;52.198;9.920;2023-02-03T10:00:13;100822.31;;;8.16;100.00
13968;BME280;39536;52.198;9.920;2023-02-03T10:02:50;100807.75;;;8.07;100.00
13968;BME280;39536;52.198;9.920;2023-02-03T10:05:24;100820.72;;;8.07;100.00
13968;BME280;39536;52.198;9.920;2023-02-03T10:08:01;100817.13;;;8.15;100.00
13968;BME280;39536;52.198;9.920;2023-02-03T10:10:37;100817.03;;;8.21;100.00
13968;BME280;39536;52.198;9.920;2023-02-03T10:13:14;100819.56;;;8.24;100.00
13968;BME280;39536;52.198;9.920;2023-02-03T10:18:46;100834.06;;;8.36;100.00
13968;BME280;39536;52.198;9.920;2023-02-03T10:21:16;100848.84;;;8.32;100.00
13968;BME280;39536;52.198;9.920;2023-02-03T10:23:45;100823.75;;;8.32;100.00
13968;BME280;39536;52.198;9.920;2023-02-03T10:26:19;100784.75;;;8.36;100.00
13968;BME280;39536;52.198;9.920;2023-02-03T10:28:53;100822.81;;;8.35;100.00
13968;BME280;39536;52.198;9.920;2023-02-03T10:31:22;100800.25;;;8.40;100.00
13968;BME280;39536;52.198;9.920;2023-02-03T10:33:54;100780.34;;;8.38;100.00
13968;BME280;39536;52.198;9.920;2023-02-03T10:36:31;100833.09;;;8.43;100.00
13968;BME280;39536;52.198;9.920;2023-02-03T10:39:04;100839.84;;;8.51;100.00
13968;BME280;39536;52.198;9.920;2023-02-03T10:41:33;100878.88;;;8.47;100.00
13968;BME280;39536;52.198;9.920;2023-02-03T10:44:03;100860.75;;;8.44;100.00
13968;BME280;39536;52.198;9.920;2023-02-03T10:46:33;100864.34;;;8.38;100.00
13968;BME280;39536;52.198;9.920;2023-02-03T10:49:00;100815.81;;;8.40;100.00
13968;BME280;39536;52.198;9.920;2023-02-03T10:51:29;100822.69;;;8.43;100.00
13968;BME280;39536;52.198;9.920;2023-02-03T10:53:56;100819.34;;;8.34;100.00
13968;BME280;39536;52.198;9.920;2023-02-03T10:56:26;100874.00;;;8.27;100.00
13968;BME280;39536;52.198;9.920;2023-02-03T10:58:57;100895.88;;;8.12;100.00
13968;BME280;39536;52.198;9.920;2023-02-03T11:01:26;100859.72;;;8.03;100.00
13968;BME280;39536;52.198;9.920;2023-02-03T11:03:58;100909.03;;;8.01;100.00
13968;BME280;39536;52.198;9.920;2023-02-03T11:06:26;100869.28;;;8.01;100.00
13968;BME280;39536;52.198;9.920;2023-02-03T11:08:53;100961.75;;;8.03;100.00
13968;BME280;39536;52.198;9.920;2023-02-03T11:11:23;100851.00;;;8.07;100.00
13968;BME280;39536;52.198;9.920;2023-02-03T11:14:09;100885.56;;;8.09;100.00
13968;BME280;39536;52.198;9.920;2023-02-03T11:16:36;100903.72;;;8.10;100.00
13968;BME280;39536;52.198;9.920;2023-02-03T11:19:04;100898.47;;;8.12;100.00
13968;BME280;39536;52.198;9.920;2023-02-03T11:21:41;100846.56;;;8.14;100.00
13968;BME280;39536;52.198;9.920;2023-02-03T11:24:16;100885.44;;;8.15;100.00
13968;BME280;39536;52.198;9.920;2023-02-03T11:26:46;100845.56;;;8.21;100.00
13968;BME280;39536;52.198;9.920;2023-02-03T11:29:17;100849.00;;;8.23;100.00
13968;BME280;39536;52.198;9.920;2023-02-03T11:31:47;100893.03;;;8.27;100.00
13968;BME280;39536;52.198;9.920;2023-02-03T11:34:16;100895.63;;;8.29;100.00
13968;BME280;39536;52.198;9.920;2023-02-03T11:36:44;100927.59;;;8.29;100.00
13968;BME280;39536;52.198;9.920;2023-02-03T11:39:16;100891.22;;;8.32;100.00
13968;BME280;39536;52.198;9.920;2023-02-03T11:41:44;100872.19;;;8.32;100.00
13968;BME280;39536;52.198;9.920;2023-02-03T11:44:17;100905.16;;;8.27;100.00
13968;BME280;39536;52.198;9.920;2023-02-03T11:46:46;100903.34;;;8.32;100.00
13968;BME280;39536;52.198;9.920;2023-02-03T11:49:32;100882.59;;;8.32;100.00
13968;BME280;39536;52.198;9.920;2023-02-03T11:52:06;100865.22;;;8.34;100.00
13968;BME280;39536;52.198;9.920;2023-02-03T11:54:41;100882.53;;;8.35;100.00
13968;BME280;39536;52.198;9.920;2023-02-03T11:57:26;100892.00;;;8.39;100.00
13968;BME280;39536;52.198;9.920;2023-02-03T12:00:15;100877.31;;;8.38;100.00
13968;BME280;39536;52.198;9.920;2023-02-03T12:02:59;100924.91;;;8.36;100.00
13968;BME280;39536;52.198;9.920;2023-02-03T12:08:26;100946.53;;;8.36;100.00
13968;BME280;39536;52.198;9.920;2023-02-03T12:11:05;100852.22;;;8.39;100.00
13968;BME280;39536;52.198;9.920;2023-02-03T12:13:56;100892.84;;;8.41;100.00
13968;BME280;39536;52.198;9.920;2023-02-03T12:16:54;100916.94;;;8.46;100.00
13968;BME280;39536;52.198;9.920;2023-02-03T12:19:30;100889.28;;;8.45;100.00
13968;BME280;39536;52.198;9.920;2023-02-03T12:22:08;100940.25;;;8.51;100.00
13968;BME280;39536;52.198;9.920;2023-02-03T12:24:46;100857.91;;;8.56;100.00
13968;BME280;39536;52.198;9.920;2023-02-03T12:27:25;100970.47;;;8.55;100.00
13968;BME280;39536;52.198;9.920;2023-02-03T12:29:58;100918.53;;;8.55;100.00
13968;BME280;39536;52.198;9.920;2023-02-03T12:32:32;100905.50;;;8.56;100.00
13968;BME280;39536;52.198;9.920;2023-02-03T12:35:09;100926.22;;;8.61;100.00
13968;BME280;39536;52.198;9.920;2023-02-03T12:37:42;100917.56;;;8.61;100.00
13968;BME280;39536;52.198;9.920;2023-02-03T12:40:15;100949.47;;;8.66;100.00
13968;BME280;39536;52.198;9.920;2023-02-03T12:42:46;100907.88;;;8.69;100.00
13968;BME280;39536;52.198;9.920;2023-02-03T12:45:18;100939.94;;;8.69;100.00
13968;BME280;39536;52.198;9.920;2023-02-03T12:47:51;100933.91;;;8.66;100.00
13968;BME280;39536;52.198;9.920;2023-02-03T12:50:22;100893.19;;;8.68;100.00
13968;BME280;39536;52.198;9.920;2023-02-03T12:52:57;100954.69;;;8.66;100.00
13968;BME280;39536;52.198;9.920;2023-02-03T12:55:31;100921.81;;;8.66;100.00
13968;BME280;39536;52.198;9.920;2023-02-03T12:58:03;100966.88;;;8.62;100.00
13968;BME280;39536;52.198;9.920;2023-02-03T13:00:38;100926.13;;;8.66;100.00
13968;BME280;39536;52.198;9.920;2023-02-03T13:03:13;100940.78;;;8.68;100.00
13968;BME280;39536;52.198;9.920;2023-02-03T13:05:44;100946.03;;;8.65;100.00
13968;BME280;39536;52.198;9.920;2023-02-03T13:08:21;100958.06;;;8.71;100.00
13968;BME280;39536;52.198;9.920;2023-02-03T13:10:52;100952.81;;;8.75;100.00
13968;BME280;39536;52.198;9.920;2023-02-03T13:13:28;100953.59;;;8.79;100.00
13968;BME280;39536;52.198;9.920;2023-02-03T13:15:59;100924.91;;;8.84;100.00